createdAt,value
2023-02-25T00:02:02.775Z,17.20
2023-02-25T00:04:32.554Z,17.24
2023-02-25T00:07:02.006Z,17.25
2023-02-25T00:09:30.841Z,17.23
2023-02-25T00:11:59.656Z,17.22
2023-02-25T00:14:28.590Z,17.20
2023-02-25T00:16:57.666Z,17.17
2023-02-25T00:19:26.424Z,17.12
2023-02-25T00:21:55.142Z,17.19
2023-02-25T00:24:23.651Z,17.16
2023-02-25T00:26:53.991Z,17.11
2023-02-25T00:29:23.189Z,17.15
2023-02-25T00:31:52.145Z,17.14
2023-02-25T00:34:20.667Z,17.14
2023-02-25T00:36:50.377Z,17.13
2023-02-25T00:39:18.999Z,17.08
2023-02-25T00:41:47.677Z,17.10
2023-02-25T00:44:16.229Z,17.09
2023-02-25T00:46:45.035Z,17.09
2023-02-25T00:49:21.242Z,17.08
2023-02-25T00:52:00.225Z,17.07
2023-02-25T00:54:28.868Z,17.02
2023-02-25T00:56:57.821Z,17.05
2023-02-25T00:59:26.218Z,17.03
2023-02-25T01:01:55.257Z,17.00
2023-02-25T01:04:23.735Z,17.01
2023-02-25T01:06:54.504Z,17.02
2023-02-25T01:09:22.948Z,17.00
2023-02-25T01:11:52.364Z,17.01
2023-02-25T01:14:23.598Z,17.00
2023-02-25T01:16:52.863Z,16.99
2023-02-25T01:19:24.704Z,16.96
2023-02-25T01:21:58.545Z,16.97
2023-02-25T01:24:30.006Z,16.96
2023-02-25T01:27:01.382Z,16.96
2023-02-25T01:29:33.059Z,16.95
2023-02-25T01:32:03.505Z,16.92
2023-02-25T01:34:32.191Z,16.94
2023-02-25T01:37:04.723Z,16.93
2023-02-25T01:39:33.225Z,16.92
2023-02-25T01:42:05.055Z,16.92
2023-02-25T01:45:00.294Z,16.91
2023-02-25T01:47:29.227Z,16.90
2023-02-25T01:49:57.609Z,16.90
2023-02-25T01:52:26.341Z,16.89
2023-02-25T01:54:56.365Z,16.88
2023-02-25T01:57:25.181Z,16.88
2023-02-25T01:59:54.312Z,16.86
2023-02-25T02:02:24.662Z,16.85
2023-02-25T02:04:53.953Z,16.82
2023-02-25T02:07:24.897Z,16.81
2023-02-25T02:09:56.291Z,16.85
2023-02-25T02:12:30.619Z,16.83
2023-02-25T02:14:59.848Z,16.84
2023-02-25T02:18:00.479Z,16.77
2023-02-25T02:21:46.241Z,16.81
2023-02-25T02:25:16.748Z,16.80
2023-02-25T02:28:03.334Z,16.77
2023-02-25T02:30:45.836Z,16.76
2023-02-25T02:33:27.648Z,16.76
2023-02-25T02:36:10.639Z,16.77
2023-02-25T02:38:53.449Z,16.76
2023-02-25T02:41:41.471Z,16.75
2023-02-25T02:44:38.428Z,16.76
2023-02-25T02:47:12.329Z,16.75
2023-02-25T02:49:58.059Z,16.73
2023-02-25T02:52:30.435Z,16.71
2023-02-25T02:55:30.744Z,16.69
2023-02-25T02:58:05.597Z,16.69
2023-02-25T03:00:40.067Z,16.69
2023-02-25T03:03:15.191Z,16.69
2023-02-25T03:05:45.643Z,16.67
2023-02-25T03:08:27.213Z,16.63
2023-02-25T03:10:55.820Z,16.68
2023-02-25T03:13:24.538Z,16.65
2023-02-25T03:15:53.224Z,16.62
2023-02-25T03:18:37.100Z,16.64
2023-02-25T03:21:18.894Z,16.64
2023-02-25T03:23:47.936Z,16.64
2023-02-25T03:26:31.354Z,16.64
2023-02-25T03:29:05.546Z,16.63
2023-02-25T03:31:43.196Z,16.62
2023-02-25T03:34:22.555Z,16.62
2023-02-25T03:37:05.941Z,16.61
2023-02-25T03:39:40.451Z,16.61
2023-02-25T03:42:12.421Z,16.56
2023-02-25T03:44:51.543Z,16.54
2023-02-25T03:47:21.349Z,16.56
2023-02-25T03:50:10.884Z,16.57
2023-02-25T03:52:41.683Z,16.56
2023-02-25T03:55:22.409Z,16.57
2023-02-25T03:57:51.272Z,16.57
2023-02-25T04:00:28.221Z,16.55
2023-02-25T04:02:56.655Z,16.54
2023-02-25T04:05:28.447Z,16.55
2023-02-25T04:07:58.364Z,16.54
2023-02-25T04:10:29.716Z,16.53
2023-02-25T04:12:58.008Z,16.51
2023-02-25T04:15:27.890Z,16.52
2023-02-25T04:17:56.296Z,16.50
2023-02-25T04:20:25.006Z,16.50
2023-02-25T04:22:53.316Z,16.51
2023-02-25T04:25:22.041Z,16.50
2023-02-25T04:27:50.408Z,16.49
2023-02-25T04:30:19.389Z,16.49
2023-02-25T04:32:47.727Z,16.48
2023-02-25T04:35:16.484Z,16.47
2023-02-25T04:37:44.849Z,16.47
2023-02-25T04:40:21.750Z,16.44
2023-02-25T04:42:50.243Z,16.47
2023-02-25T04:45:19.156Z,16.45
2023-02-25T04:47:47.583Z,16.45
2023-02-25T04:50:16.185Z,16.44
2023-02-25T04:52:44.495Z,16.44
2023-02-25T04:55:13.448Z,16.43
2023-02-25T04:57:42.918Z,16.43
2023-02-25T05:00:20.639Z,16.44
2023-02-25T05:02:49.112Z,16.39
2023-02-25T05:05:18.650Z,16.43
2023-02-25T05:07:46.899Z,16.41
2023-02-25T05:10:15.825Z,16.43
2023-02-25T05:12:44.130Z,16.46
2023-02-25T05:15:12.881Z,16.51
2023-02-25T05:17:41.260Z,16.56
2023-02-25T05:20:12.942Z,16.66
2023-02-25T05:22:41.990Z,16.76
2023-02-25T05:25:10.772Z,16.78
2023-02-25T05:27:39.108Z,16.88
2023-02-25T05:30:09.878Z,16.94
2023-02-25T05:32:39.082Z,17.07
2023-02-25T05:35:11.697Z,17.05
2023-02-25T05:37:40.412Z,17.21
2023-02-25T05:40:10.227Z,17.27
2023-02-25T05:42:38.672Z,17.39
2023-02-25T05:45:09.254Z,17.51
2023-02-25T05:47:37.731Z,17.47
2023-02-25T05:50:06.944Z,17.50
2023-02-25T05:52:35.209Z,17.44
2023-02-25T05:55:04.230Z,17.52
2023-02-25T05:57:32.526Z,17.54
2023-02-25T06:00:01.798Z,17.52
2023-02-25T06:02:41.298Z,17.46
2023-02-25T06:05:10.084Z,17.44
2023-02-25T06:07:38.447Z,17.42
2023-02-25T06:10:07.528Z,17.42
2023-02-25T06:12:38.329Z,17.38
2023-02-25T06:15:07.944Z,17.35
2023-02-25T06:17:36.224Z,17.35
2023-02-25T06:20:06.431Z,17.29
2023-02-25T06:22:34.784Z,17.32
2023-02-25T06:25:03.625Z,17.30
2023-02-25T06:27:31.972Z,17.27
2023-02-25T06:30:02.755Z,17.25
2023-02-25T06:32:31.278Z,17.23
2023-02-25T06:34:59.952Z,17.26
2023-02-25T06:37:28.317Z,17.21
2023-02-25T06:39:57.072Z,17.24
2023-02-25T06:42:25.547Z,17.20
2023-02-25T06:44:54.133Z,17.21
2023-02-25T06:47:23.316Z,17.17
2023-02-25T06:49:51.870Z,17.14
2023-02-25T06:52:20.160Z,17.14
2023-02-25T06:54:50.059Z,17.13
2023-02-25T06:57:18.345Z,17.12
2023-02-25T06:59:47.604Z,17.13
2023-02-25T07:02:15.894Z,17.10
2023-02-25T07:04:44.552Z,17.12
2023-02-25T07:07:12.876Z,17.11
2023-02-25T07:09:41.506Z,17.10
2023-02-25T07:12:09.837Z,17.08
2023-02-25T07:14:38.549Z,17.13
2023-02-25T07:17:06.995Z,17.11
2023-02-25T07:19:35.618Z,17.10
2023-02-25T07:22:05.656Z,17.07
2023-02-25T07:24:34.246Z,17.02
2023-02-25T07:27:02.618Z,17.03
2023-02-25T07:29:31.930Z,17.03
2023-02-25T07:32:00.607Z,17.01
2023-02-25T07:34:29.620Z,17.00
2023-02-25T07:36:58.062Z,16.99
2023-02-25T07:39:26.664Z,16.88
2023-02-25T07:41:54.961Z,16.95
2023-02-25T07:44:23.804Z,16.96
2023-02-25T07:46:52.052Z,16.98
2023-02-25T07:49:20.683Z,16.96
2023-02-25T07:51:48.927Z,16.93
2023-02-25T07:54:21.337Z,16.94
2023-02-25T07:56:52.624Z,16.92
2023-02-25T07:59:22.503Z,16.92
2023-02-25T08:01:50.914Z,16.87
2023-02-25T08:04:19.838Z,16.90
2023-02-25T08:06:48.204Z,16.87
2023-02-25T08:09:17.043Z,16.88
2023-02-25T08:11:45.748Z,16.85
2023-02-25T08:14:14.829Z,16.83
2023-02-25T08:16:43.402Z,16.83
2023-02-25T08:19:12.988Z,16.85
2023-02-25T08:21:43.180Z,16.80
2023-02-25T08:24:12.000Z,16.77
2023-02-25T08:26:41.521Z,16.81
2023-02-25T08:29:10.311Z,16.80
2023-02-25T08:31:39.072Z,16.78
2023-02-25T08:34:08.157Z,16.81
2023-02-25T08:36:37.434Z,16.77
2023-02-25T08:39:06.449Z,16.78
2023-02-25T08:41:34.967Z,16.78
2023-02-25T08:44:04.029Z,16.78
2023-02-25T08:46:36.246Z,16.82
2023-02-25T08:49:05.460Z,16.82
2023-02-25T08:51:38.775Z,16.79
2023-02-25T08:54:12.176Z,16.76
2023-02-25T08:56:44.745Z,16.78
2023-02-25T08:59:16.074Z,16.75
2023-02-25T09:01:49.207Z,16.78
2023-02-25T09:04:21.731Z,16.78
2023-02-25T09:06:52.264Z,16.78
2023-02-25T09:09:21.549Z,16.78
2023-02-25T09:11:50.183Z,16.78
2023-02-25T09:14:19.017Z,16.79
2023-02-25T09:16:47.516Z,16.78
2023-02-25T09:19:18.242Z,16.81
2023-02-25T09:21:48.718Z,16.82
2023-02-25T09:24:17.763Z,16.82
2023-02-25T09:26:47.021Z,16.78
2023-02-25T09:29:16.118Z,16.83
2023-02-25T09:31:44.661Z,16.82
2023-02-25T09:34:15.516Z,16.82
2023-02-25T09:36:44.341Z,16.84
2023-02-25T09:39:13.737Z,16.83
2023-02-25T09:42:14.076Z,16.80
2023-02-25T09:44:52.446Z,16.84
2023-02-25T09:47:44.236Z,16.83
2023-02-25T09:50:23.695Z,16.79
2023-02-25T09:53:20.958Z,16.86
2023-02-25T09:55:52.183Z,16.83
2023-02-25T09:58:51.398Z,16.83
2023-02-25T10:01:34.829Z,16.86
2023-02-25T10:04:28.742Z,16.84
2023-02-25T10:06:57.821Z,16.84
2023-02-25T10:09:58.311Z,16.81
2023-02-25T10:12:52.103Z,16.83
2023-02-25T10:15:37.412Z,16.86
2023-02-25T10:18:26.925Z,16.88
2023-02-25T10:21:35.369Z,16.90
2023-02-25T10:24:36.362Z,16.90
2023-02-25T10:28:11.868Z,16.90
2023-02-25T10:31:18.942Z,16.84
2023-02-25T10:33:50.311Z,16.87
2023-02-25T10:36:29.354Z,16.83
2023-02-25T10:38:58.066Z,16.95
2023-02-25T10:41:27.185Z,17.01
2023-02-25T10:43:55.944Z,17.08
2023-02-25T10:47:01.671Z,17.14
2023-02-25T10:49:30.707Z,17.23
2023-02-25T10:52:16.171Z,17.26
2023-02-25T10:54:52.762Z,17.35
2023-02-25T10:57:28.723Z,17.45
2023-02-25T11:00:32.992Z,17.62
2023-02-25T11:03:02.165Z,17.60
2023-02-25T11:05:41.627Z,17.63
2023-02-25T11:08:28.116Z,17.69
2023-02-25T11:11:32.092Z,17.69
2023-02-25T11:14:10.374Z,17.79
2023-02-25T11:16:40.217Z,17.81
2023-02-25T11:19:24.141Z,17.84
2023-02-25T11:21:52.622Z,17.83
2023-02-25T11:24:35.265Z,17.77
2023-02-25T11:27:05.098Z,17.80
2023-02-25T11:29:38.734Z,17.79
2023-02-25T11:32:13.224Z,17.79
2023-02-25T11:34:56.053Z,17.82
2023-02-25T11:37:45.524Z,17.85
2023-02-25T11:40:28.320Z,17.70
2023-02-25T11:43:05.349Z,17.56
2023-02-25T11:45:53.433Z,17.49
2023-02-25T11:48:41.225Z,17.51
2023-02-25T11:51:26.681Z,17.40
2023-02-25T11:54:06.756Z,17.43
2023-02-25T11:56:45.239Z,17.42
2023-02-25T11:59:20.012Z,17.35
2023-02-25T12:03:01.314Z,17.43
2023-02-25T12:06:00.472Z,17.37
2023-02-25T12:08:40.761Z,17.43
2023-02-25T12:11:45.772Z,17.43
2023-02-25T12:15:04.902Z,17.04
2023-02-25T12:17:58.751Z,17.25
2023-02-25T12:21:08.812Z,17.35
2023-02-25T12:24:16.475Z,17.29
2023-02-25T12:27:10.175Z,17.16
2023-02-25T12:30:04.274Z,17.27
2023-02-25T12:33:18.432Z,17.10
2023-02-25T12:36:20.202Z,17.30
2023-02-25T12:39:06.302Z,17.42
2023-02-25T12:42:11.127Z,17.36
2023-02-25T12:45:00.942Z,17.44
2023-02-25T12:47:53.024Z,17.53
2023-02-25T12:50:54.631Z,17.58
2023-02-25T12:53:51.712Z,17.57
2023-02-25T12:56:47.882Z,17.57
2023-02-25T12:59:37.274Z,17.58
2023-02-25T13:02:35.784Z,17.59
2023-02-25T13:05:36.853Z,17.60
2023-02-25T13:08:26.736Z,17.62
2023-02-25T13:11:24.085Z,17.60
2023-02-25T13:14:42.272Z,17.59
2023-02-25T13:17:34.592Z,17.59
2023-02-25T13:20:47.925Z,17.52
2023-02-25T13:24:06.465Z,17.49
2023-02-25T13:27:14.064Z,17.33
2023-02-25T13:29:45.456Z,17.31
2023-02-25T13:32:31.941Z,17.28
2023-02-25T13:35:25.872Z,17.29
2023-02-25T13:38:19.818Z,17.25
2023-02-25T13:41:25.638Z,17.32
2023-02-25T13:44:28.023Z,17.24
2023-02-25T13:47:48.121Z,17.16
2023-02-25T13:50:35.390Z,17.09
2023-02-25T13:53:45.123Z,17.12
2023-02-25T13:57:00.964Z,17.11
2023-02-25T13:59:55.534Z,17.16
2023-02-25T14:02:27.355Z,17.16
2023-02-25T14:05:26.645Z,17.08
2023-02-25T14:08:12.718Z,17.14
2023-02-25T14:11:18.384Z,17.20
2023-02-25T14:14:38.363Z,17.14
2023-02-25T14:17:26.961Z,17.07
2023-02-25T14:20:23.572Z,17.13
2023-02-25T14:23:19.444Z,17.12
2023-02-25T14:26:22.881Z,17.15
2023-02-25T14:29:37.124Z,17.23
2023-02-25T14:33:02.260Z,17.33
2023-02-25T14:36:03.395Z,17.31
2023-02-25T14:38:55.637Z,17.33
2023-02-25T14:42:06.053Z,17.33
2023-02-25T14:45:09.867Z,17.31
2023-02-25T14:48:14.201Z,17.28
2023-02-25T14:50:54.554Z,17.29
2023-02-25T14:53:46.213Z,17.27
2023-02-25T14:57:12.421Z,17.27
2023-02-25T14:59:46.473Z,17.29
2023-02-25T15:02:59.679Z,17.27
2023-02-25T15:05:49.722Z,17.24
2023-02-25T15:08:53.690Z,17.21
2023-02-25T15:11:46.182Z,17.17
2023-02-25T15:14:53.380Z,17.15
2023-02-25T15:17:59.700Z,17.17
2023-02-25T15:20:34.499Z,17.15
2023-02-25T15:23:07.361Z,17.14
2023-02-25T15:25:45.764Z,17.14
2023-02-25T15:28:42.175Z,17.12
2023-02-25T15:31:28.697Z,17.09
2023-02-25T15:34:22.734Z,17.07
2023-02-25T15:36:52.668Z,17.09
2023-02-25T15:39:41.404Z,17.00
2023-02-25T15:42:14.277Z,17.06
2023-02-25T15:44:44.238Z,17.06
2023-02-25T15:47:21.887Z,17.07
2023-02-25T15:49:50.907Z,17.00
2023-02-25T15:52:56.547Z,17.04
2023-02-25T15:55:43.300Z,16.99
2023-02-25T15:58:24.225Z,17.06
2023-02-25T16:01:00.143Z,17.00
2023-02-25T16:03:35.017Z,17.01
2023-02-25T16:06:22.555Z,17.01
2023-02-25T16:08:59.425Z,17.02
2023-02-25T16:11:42.557Z,16.99
2023-02-25T16:14:27.669Z,16.98
2023-02-25T16:17:06.160Z,16.95
2023-02-25T16:19:36.996Z,16.95
2023-02-25T16:22:26.232Z,16.91
2023-02-25T16:24:57.781Z,16.93
2023-02-25T16:27:54.096Z,16.94
2023-02-25T16:31:07.900Z,17.01
2023-02-25T16:34:31.164Z,17.08
2023-02-25T16:37:10.786Z,17.20
2023-02-25T16:39:39.245Z,17.30
2023-02-25T16:42:16.068Z,17.41
2023-02-25T16:44:57.459Z,17.45
2023-02-25T16:47:32.393Z,17.59
2023-02-25T16:50:03.829Z,17.70
2023-02-25T16:52:40.566Z,17.87
2023-02-25T16:55:12.855Z,17.95
2023-02-25T16:57:41.705Z,18.07
2023-02-25T17:00:19.614Z,18.17
2023-02-25T17:02:52.733Z,18.20
2023-02-25T17:05:33.210Z,18.37
2023-02-25T17:08:05.125Z,18.39
2023-02-25T17:10:50.979Z,18.45
2023-02-25T17:13:29.946Z,18.54
2023-02-25T17:16:00.879Z,18.67
2023-02-25T17:18:35.816Z,18.66
2023-02-25T17:21:16.285Z,18.81
2023-02-25T17:23:45.559Z,18.89
2023-02-25T17:26:17.210Z,18.91
2023-02-25T17:28:47.576Z,18.81
2023-02-25T17:31:19.429Z,18.76
2023-02-25T17:33:51.996Z,18.75
2023-02-25T17:36:24.729Z,18.82
2023-02-25T17:38:59.897Z,18.83
2023-02-25T17:41:28.729Z,18.79
2023-02-25T17:43:57.520Z,18.77
2023-02-25T17:46:38.314Z,18.69
2023-02-25T17:49:32.288Z,18.61
2023-02-25T17:52:04.841Z,18.65
2023-02-25T17:54:37.471Z,18.61
2023-02-25T17:57:20.543Z,18.55
2023-02-25T17:59:56.010Z,18.52
2023-02-25T18:02:37.097Z,18.50
2023-02-25T18:05:18.724Z,18.50
2023-02-25T18:08:08.534Z,18.44
2023-02-25T18:10:37.090Z,18.37
2023-02-25T18:13:05.450Z,18.32
2023-02-25T18:15:34.436Z,18.27
2023-02-25T18:18:05.217Z,18.30
2023-02-25T18:20:36.015Z,18.23
2023-02-25T18:23:25.744Z,18.33
2023-02-25T18:26:21.354Z,18.47
2023-02-25T18:28:51.502Z,18.54
2023-02-25T18:31:20.498Z,18.65
2023-02-25T18:33:49.129Z,18.73
2023-02-25T18:36:27.220Z,18.87
2023-02-25T18:38:59.041Z,18.86
2023-02-25T18:41:27.633Z,18.85
2023-02-25T18:43:55.954Z,18.78
2023-02-25T18:46:24.754Z,18.81
2023-02-25T18:48:53.427Z,18.79
2023-02-25T18:51:22.062Z,18.79
2023-02-25T18:53:50.504Z,18.75
2023-02-25T18:56:19.160Z,18.72
2023-02-25T18:58:47.554Z,18.71
2023-02-25T19:01:24.125Z,18.72
2023-02-25T19:03:54.029Z,18.64
2023-02-25T19:06:22.898Z,18.66
2023-02-25T19:08:51.445Z,18.65
2023-02-25T19:11:24.447Z,18.62
2023-02-25T19:13:53.189Z,18.55
2023-02-25T19:16:23.748Z,18.55
2023-02-25T19:18:52.420Z,18.51
2023-02-25T19:21:21.505Z,18.47
2023-02-25T19:23:54.095Z,18.46
2023-02-25T19:26:23.025Z,18.45
2023-02-25T19:28:51.572Z,18.44
2023-02-25T19:31:20.579Z,18.40
2023-02-25T19:33:48.953Z,18.39
2023-02-25T19:36:18.780Z,18.33
2023-02-25T19:38:47.073Z,18.34
2023-02-25T19:41:15.702Z,18.34
2023-02-25T19:43:44.013Z,18.27
2023-02-25T19:46:12.739Z,18.27
2023-02-25T19:48:41.067Z,18.28
2023-02-25T19:51:10.488Z,18.24
2023-02-25T19:53:38.865Z,18.23
2023-02-25T19:56:08.182Z,18.19
2023-02-25T19:58:36.582Z,18.19
2023-02-25T20:01:08.347Z,18.17
2023-02-25T20:03:36.815Z,18.15
2023-02-25T20:06:12.289Z,18.13
2023-02-25T20:08:41.802Z,18.13
2023-02-25T20:11:11.099Z,18.12
2023-02-25T20:13:39.482Z,18.09
2023-02-25T20:16:09.473Z,18.09
2023-02-25T20:18:37.939Z,18.05
2023-02-25T20:21:06.895Z,18.06
2023-02-25T20:23:35.096Z,18.06
2023-02-25T20:26:06.653Z,18.05
2023-02-25T20:28:34.914Z,18.04
2023-02-25T20:31:11.591Z,18.00
2023-02-25T20:33:40.378Z,18.03
2023-02-25T20:36:26.806Z,18.07
2023-02-25T20:39:12.929Z,18.14
2023-02-25T20:41:45.480Z,18.27
2023-02-25T20:44:14.342Z,18.35
2023-02-25T20:46:43.403Z,18.44
2023-02-25T20:49:18.212Z,18.56
2023-02-25T20:51:47.620Z,18.67
2023-02-25T20:54:17.444Z,18.73
2023-02-25T20:56:47.206Z,18.79
2023-02-25T20:59:15.909Z,18.73
2023-02-25T21:01:44.523Z,18.74
2023-02-25T21:04:12.936Z,18.77
2023-02-25T21:06:41.584Z,18.72
2023-02-25T21:09:10.456Z,18.71
2023-02-25T21:11:39.107Z,18.68
2023-02-25T21:14:10.475Z,18.67
2023-02-25T21:16:39.471Z,18.61
2023-02-25T21:19:08.235Z,18.59
2023-02-25T21:21:37.489Z,18.56
2023-02-25T21:24:07.657Z,18.58
2023-02-25T21:26:39.565Z,18.58
2023-02-25T21:29:08.305Z,18.56
2023-02-25T21:31:37.384Z,18.37
2023-02-25T21:34:06.064Z,18.48
2023-02-25T21:36:34.822Z,18.42
2023-02-25T21:39:03.610Z,18.44
2023-02-25T21:41:32.231Z,18.43
2023-02-25T21:44:00.539Z,18.38
2023-02-25T21:46:29.294Z,18.39
2023-02-25T21:48:57.702Z,18.34
2023-02-25T21:51:27.667Z,18.27
2023-02-25T21:53:57.745Z,18.24
2023-02-25T21:56:26.865Z,18.26
2023-02-25T21:58:56.798Z,18.21
2023-02-25T22:01:31.018Z,18.24
2023-02-25T22:03:59.395Z,18.22
2023-02-25T22:06:28.669Z,18.20
2023-02-25T22:08:57.313Z,18.19
2023-02-25T22:11:31.546Z,18.12
2023-02-25T22:14:01.086Z,18.10
2023-02-25T22:16:29.906Z,18.12
2023-02-25T22:18:58.817Z,18.11
2023-02-25T22:21:29.827Z,18.08
2023-02-25T22:24:00.323Z,18.08
2023-02-25T22:26:33.392Z,18.05
2023-02-25T22:29:07.327Z,18.04
2023-02-25T22:31:36.372Z,18.02
2023-02-25T22:34:05.560Z,17.96
2023-02-25T22:36:34.176Z,17.99
2023-02-25T22:39:05.899Z,17.95
2023-02-25T22:41:34.625Z,17.95
2023-02-25T22:44:03.591Z,17.91
2023-02-25T22:46:36.326Z,17.90
2023-02-25T22:49:05.902Z,17.91
2023-02-25T22:51:42.983Z,17.90
2023-02-25T22:54:16.397Z,17.90
2023-02-25T22:56:46.093Z,17.85
2023-02-25T22:59:14.667Z,17.86
2023-02-25T23:01:43.516Z,17.85
2023-02-25T23:04:11.914Z,17.83
2023-02-25T23:06:44.324Z,17.83
2023-02-25T23:09:14.196Z,17.82
2023-02-25T23:11:43.743Z,17.80
2023-02-25T23:14:12.280Z,17.78
2023-02-25T23:16:43.656Z,17.78
2023-02-25T23:19:16.111Z,17.77
2023-02-25T23:21:45.244Z,17.74
2023-02-25T23:24:16.553Z,17.74
2023-02-25T23:26:45.911Z,17.72
2023-02-25T23:29:14.239Z,17.72
2023-02-25T23:31:46.181Z,17.71
2023-02-25T23:34:23.239Z,17.69
2023-02-25T23:36:57.357Z,17.68
2023-02-25T23:39:25.659Z,17.67
2023-02-25T23:41:54.354Z,17.66
2023-02-25T23:44:22.757Z,17.65
2023-02-25T23:46:51.615Z,17.65
2023-02-25T23:49:19.936Z,17.60
2023-02-25T23:51:48.739Z,17.61
2023-02-25T23:54:21.704Z,17.55
2023-02-25T23:56:50.531Z,17.59
2023-02-25T23:59:18.828Z,17.59
